Time;durP1;ratioP1;P1;durP2;ratioP2;P2;SDS_P1;SDS_P2;PMS_P1;PMS_P2;Temp;Humidity;BMP_temperature;BMP_pressure;BME280_temperature;BME280_humidity;BME280_pressure;Samples;Min_cycle;Max_cycle;Signal;HPM_P1;HPM_P2
2023/04/04 00:01:56;;;;;;;3.55;1.83;;;-0.20;70.10;;;;;;5027431;28;20205;-68
2023/04/04 00:04:23;;;;;;;4.53;1.92;;;-0.10;66.40;;;;;;5027173;28;20201;-67
2023/04/04 00:06:50;;;;;;;3.75;1.85;;;-0.20;65.30;;;;;;5027494;28;20205;-66
2023/04/04 00:09:17;;;;;;;1.90;1.70;;;-0.20;65.00;;;;;;5027483;28;20221;-68
2023/04/04 00:11:46;;;;;;;2.60;2.17;;;-0.20;64.80;;;;;;5027851;28;20213;-68
2023/04/04 00:14:13;;;;;;;3.85;2.20;;;-0.20;64.30;;;;;;5022475;28;20264;-66
2023/04/04 00:16:40;;;;;;;1.75;1.65;;;-0.20;64.50;;;;;;5028367;28;20202;-67
2023/04/04 00:19:07;;;;;;;3.90;1.75;;;-0.20;64.40;;;;;;5027700;28;20229;-66
2023/04/04 00:21:34;;;;;;;2.10;2.00;;;-0.20;64.50;;;;;;5028630;28;20248;-68
2023/04/04 00:24:01;;;;;;;3.58;2.17;;;-0.20;64.60;;;;;;5027932;28;20590;-65
2023/04/04 00:26:28;;;;;;;3.67;1.90;;;-0.20;64.20;;;;;;5029300;28;20616;-65
2023/04/04 00:28:56;;;;;;;2.83;1.80;;;-0.10;63.40;;;;;;5028922;28;20222;-67
2023/04/04 00:31:23;;;;;;;4.43;1.80;;;0.00;63.00;;;;;;5029182;28;20202;-68
2023/04/04 00:33:50;;;;;;;2.13;1.60;;;0.00;63.00;;;;;;5028675;28;20738;-65
2023/04/04 00:36:17;;;;;;;3.78;1.90;;;0.00;62.80;;;;;;5029464;28;20201;-65
2023/04/04 00:38:44;;;;;;;2.67;2.47;;;-0.10;63.60;;;;;;5029559;28;20727;-67
2023/04/04 00:41:11;;;;;;;2.20;1.92;;;-0.10;63.60;;;;;;5029266;28;20213;-68
2023/04/04 00:43:38;;;;;;;2.42;2.22;;;-0.10;63.80;;;;;;5029213;28;20209;-66
2023/04/04 00:46:09;;;;;;;3.38;2.50;;;-0.20;64.50;;;;;;5029527;28;20225;-66
2023/04/04 00:48:36;;;;;;;2.20;1.50;;;-0.10;64.60;;;;;;5029728;28;20782;-65
2023/04/04 00:51:03;;;;;;;2.63;1.95;;;-0.20;64.30;;;;;;5030074;28;20206;-66
2023/04/04 00:53:31;;;;;;;2.85;2.20;;;-0.20;65.20;;;;;;5033992;28;20230;-66
2023/04/04 00:55:57;;;;;;;2.10;1.85;;;-0.30;65.40;;;;;;5035851;28;20201;-66
2023/04/04 00:58:26;;;;;;;2.55;1.67;;;-0.20;65.80;;;;;;5035647;28;20201;-66
2023/04/04 01:00:53;;;;;;;3.15;2.13;;;-0.30;65.50;;;;;;5036853;28;20210;-67
2023/04/04 01:03:21;;;;;;;3.45;2.38;;;-0.30;65.70;;;;;;5033113;28;20779;-65
2023/04/04 01:05:48;;;;;;;6.65;4.07;;;-0.30;66.40;;;;;;5033459;28;20704;-66
2023/04/04 01:08:19;;;;;;;3.30;2.50;;;-0.40;70.40;;;;;;5033171;28;20202;-66
2023/04/04 01:10:47;;;;;;;5.20;2.85;;;-0.60;69.30;;;;;;5033379;28;20227;-67
2023/04/04 01:13:14;;;;;;;3.58;2.35;;;-0.70;69.40;;;;;;5032729;28;20205;-68
2023/04/04 01:15:41;;;;;;;2.72;2.17;;;-0.80;69.30;;;;;;5033049;28;20216;-68
2023/04/04 01:18:12;;;;;;;3.50;2.50;;;-0.90;69.60;;;;;;5033312;28;20217;-66
2023/04/04 01:20:51;;;;;;;3.90;2.33;;;-0.90;69.80;;;;;;5032571;28;20206;-68
2023/04/04 01:23:18;;;;;;;3.25;2.50;;;-1.00;70.00;;;;;;5032762;28;20588;-67
2023/04/04 01:25:48;;;;;;;2.63;2.40;;;-1.10;70.20;;;;;;5032844;28;20198;-65
2023/04/04 01:28:16;;;;;;;3.40;2.90;;;-1.10;70.80;;;;;;5032967;28;20209;-68
2023/04/04 01:30:44;;;;;;;5.72;4.38;;;-1.10;71.10;;;;;;5033005;28;20860;-65
2023/04/04 01:33:28;;;;;;;5.50;2.13;;;-1.10;70.60;;;;;;5032498;28;20205;-69
2023/04/04 01:36:05;;;;;;;2.60;2.40;;;-1.10;70.50;;;;;;5032224;28;20572;-68
2023/04/04 01:38:41;;;;;;;3.47;2.30;;;-1.10;70.30;;;;;;5032246;28;20702;-67
2023/04/04 01:41:10;;;;;;;4.65;2.47;;;-1.10;70.30;;;;;;5032544;28;20572;-67
2023/04/04 01:43:37;;;;;;;2.08;1.90;;;-1.20;70.20;;;;;;5032168;28;20668;-69
2023/04/04 01:46:05;;;;;;;3.33;2.35;;;-1.10;70.20;;;;;;5032544;28;20587;-66
2023/04/04 01:48:31;;;;;;;4.13;2.75;;;-1.10;70.20;;;;;;5032277;28;20213;-67
2023/04/04 01:51:00;;;;;;;3.20;1.98;;;-1.10;70.50;;;;;;5032820;28;20217;-68
2023/04/04 01:53:26;;;;;;;4.32;2.30;;;-1.20;70.80;;;;;;5032196;28;20213;-67
2023/04/04 01:55:54;;;;;;;4.28;2.30;;;-1.20;70.90;;;;;;5032492;28;20579;-67
2023/04/04 01:58:22;;;;;;;3.03;2.25;;;-1.20;71.10;;;;;;5032412;28;20264;-67
2023/04/04 02:00:49;;;;;;;3.45;2.70;;;-1.20;71.30;;;;;;5031854;28;20217;-68
2023/04/04 02:03:16;;;;;;;3.80;2.15;;;-1.20;71.60;;;;;;5031702;28;20661;-67
2023/04/04 02:05:43;;;;;;;2.50;2.30;;;-1.20;71.40;;;;;;5032050;28;20726;-68
2023/04/04 02:08:11;;;;;;;2.08;1.88;;;-1.20;71.70;;;;;;5032290;28;20205;-68
2023/04/04 02:10:37;;;;;;;4.63;2.80;;;-1.20;71.40;;;;;;5031461;28;20279;-66
2023/04/04 02:13:05;;;;;;;6.80;2.72;;;-1.20;71.40;;;;;;5031758;28;20201;-67
2023/04/04 02:15:33;;;;;;;2.80;2.60;;;-1.30;71.50;;;;;;5032123;28;20232;-68
2023/04/04 02:18:00;;;;;;;6.05;3.00;;;-1.30;73.40;;;;;;5031593;28;20202;-67
2023/04/04 02:20:27;;;;;;;5.75;2.13;;;-1.20;74.40;;;;;;5031926;28;20226;-69
2023/04/04 02:22:55;;;;;;;4.65;2.30;;;-1.30;74.40;;;;;;5031432;28;20248;-68
2023/04/04 02:25:22;;;;;;;4.00;2.83;;;-1.40;73.80;;;;;;5032019;28;20579;-69
2023/04/04 02:27:49;;;;;;;3.40;2.95;;;-1.50;74.00;;;;;;5031538;28;20213;-67
2023/04/04 02:30:17;;;;;;;4.32;2.50;;;-1.60;74.20;;;;;;5031978;28;20230;-70
2023/04/04 02:32:45;;;;;;;4.03;3.38;;;-1.70;74.80;;;;;;5031347;28;20198;-67
2023/04/04 02:35:12;;;;;;;3.80;2.63;;;-1.70;74.50;;;;;;5031407;28;20230;-63
2023/04/04 02:37:39;;;;;;;4.40;2.55;;;-1.70;74.60;;;;;;5031991;28;20217;-65
2023/04/04 02:40:07;;;;;;;4.85;2.70;;;-1.70;74.20;;;;;;5031310;28;20727;-70
2023/04/04 02:42:34;;;;;;;2.95;2.40;;;-1.60;73.90;;;;;;5031552;28;20206;-67
2023/04/04 02:45:01;;;;;;;7.00;2.67;;;-1.60;73.50;;;;;;5031564;28;20205;-67
2023/04/04 02:47:28;;;;;;;4.00;3.13;;;-1.60;73.60;;;;;;5032140;28;20210;-67
2023/04/04 02:49:56;;;;;;;3.25;2.72;;;-1.60;73.70;;;;;;5031528;28;20342;-66
2023/04/04 02:52:23;;;;;;;3.50;2.88;;;-1.60;73.50;;;;;;5031669;28;20209;-68
2023/04/04 02:54:50;;;;;;;3.97;2.90;;;-1.50;73.50;;;;;;5031179;28;20225;-68
2023/04/04 02:57:17;;;;;;;2.95;2.67;;;-1.50;73.20;;;;;;5031445;28;20274;-68
2023/04/04 02:59:44;;;;;;;4.00;3.15;;;-1.50;72.70;;;;;;5031470;28;20595;-68
2023/04/04 03:02:10;;;;;;;5.80;2.95;;;-1.50;72.90;;;;;;5031100;28;20313;-69
2023/04/04 03:04:37;;;;;;;3.97;2.90;;;-1.60;75.90;;;;;;5031053;28;20570;-68
2023/04/04 03:07:05;;;;;;;3.75;3.35;;;-1.60;77.50;;;;;;5030988;28;20206;-69
2023/04/04 03:09:32;;;;;;;3.90;3.47;;;-1.60;78.00;;;;;;5030904;28;20240;-68
2023/04/04 03:12:00;;;;;;;4.07;3.20;;;-1.70;78.60;;;;;;5031058;28;20206;-70
2023/04/04 03:14:28;;;;;;;4.43;2.88;;;-1.90;78.80;;;;;;5030896;28;20589;-68
2023/04/04 03:16:55;;;;;;;3.60;2.85;;;-1.90;76.50;;;;;;5030852;28;20202;-69
2023/04/04 03:19:22;;;;;;;4.07;2.70;;;-2.10;76.20;;;;;;5030715;28;20240;-69
2023/04/04 03:21:49;;;;;;;3.05;2.75;;;-2.10;76.00;;;;;;5030626;28;20229;-65
2023/04/04 03:24:17;;;;;;;3.45;3.15;;;-2.00;75.50;;;;;;5029760;28;20747;-69
2023/04/04 03:26:44;;;;;;;4.45;2.65;;;-2.00;75.50;;;;;;5031065;28;20264;-68
2023/04/04 03:29:11;;;;;;;11.02;2.88;;;-1.90;74.90;;;;;;5030785;28;20229;-68
2023/04/04 03:31:37;;;;;;;3.30;3.00;;;-1.80;74.60;;;;;;5030598;28;20216;-67
2023/04/04 03:34:04;;;;;;;3.55;3.20;;;-1.80;74.40;;;;;;5030078;28;20224;-68
2023/04/04 03:36:31;;;;;;;4.95;3.28;;;-1.80;74.30;;;;;;5030549;28;20749;-68
2023/04/04 03:38:58;;;;;;;3.80;2.78;;;-1.90;74.50;;;;;;5030547;28;20564;-68
2023/04/04 03:41:26;;;;;;;4.13;3.00;;;-1.90;74.40;;;;;;5030277;28;20246;-69
2023/04/04 03:43:53;;;;;;;8.15;3.30;;;-1.90;74.40;;;;;;5030366;28;20212;-68
2023/04/04 03:46:20;;;;;;;3.40;2.90;;;-1.90;74.40;;;;;;5030321;28;20209;-69
2023/04/04 03:48:47;;;;;;;3.60;3.15;;;-1.90;74.30;;;;;;5030408;28;20260;-69
2023/04/04 03:51:13;;;;;;;4.18;2.90;;;-1.90;74.10;;;;;;5030312;28;20295;-66
2023/04/04 03:53:40;;;;;;;3.90;3.10;;;-1.90;73.80;;;;;;5030554;28;20198;-67
2023/04/04 03:56:07;;;;;;;6.25;3.20;;;-1.80;73.60;;;;;;5029856;28;20232;-67
2023/04/04 03:58:36;;;;;;;5.35;3.10;;;-1.70;73.00;;;;;;5030463;28;20222;-68
2023/04/04 04:01:03;;;;;;;5.32;3.22;;;-1.60;72.50;;;;;;5030086;28;20219;-68
2023/04/04 04:03:30;;;;;;;4.72;3.33;;;-1.60;72.10;;;;;;5029669;28;20209;-68
2023/04/04 04:05:57;;;;;;;3.65;2.80;;;-1.60;72.70;;;;;;5030251;28;20200;-68
2023/04/04 04:08:23;;;;;;;4.88;3.28;;;-1.50;71.90;;;;;;5029668;28;20227;-69
2023/04/04 04:10:50;;;;;;;4.78;3.05;;;-1.60;71.90;;;;;;5030045;28;20722;-68
2023/04/04 04:13:17;;;;;;;6.53;2.83;;;-1.60;72.00;;;;;;5029657;28;20243;-67
2023/04/04 04:15:45;;;;;;;2.95;2.75;;;-1.60;72.00;;;;;;5029911;28;20228;-68
2023/04/04 04:18:12;;;;;;;7.00;3.28;;;-1.60;72.30;;;;;;5029495;28;20205;-68
2023/04/04 04:20:38;;;;;;;5.78;3.15;;;-1.60;72.10;;;;;;5029859;28;20228;-67
2023/04/04 04:23:05;;;;;;;6.05;4.18;;;-1.60;72.40;;;;;;5029508;28;20205;-67
2023/04/04 04:25:32;;;;;;;3.17;2.97;;;-1.60;72.10;;;;;;5029933;28;20213;-68
2023/04/04 04:27:59;;;;;;;5.78;3.15;;;-1.60;72.00;;;;;;5030077;28;20201;-67
2023/04/04 04:30:26;;;;;;;9.30;3.13;;;-1.60;72.10;;;;;;5029458;28;20229;-67
2023/04/04 04:32:55;;;;;;;5.40;2.85;;;-1.70;72.10;;;;;;5029482;28;20244;-67
2023/04/04 04:35:21;;;;;;;5.15;3.45;;;-1.60;72.20;;;;;;5029477;28;20235;-69
2023/04/04 04:37:48;;;;;;;3.00;2.80;;;-1.60;72.20;;;;;;5030058;28;20582;-68
2023/04/04 04:40:15;;;;;;;4.28;3.88;;;-1.70;72.00;;;;;;5029282;28;20237;-68
2023/04/04 04:42:45;;;;;;;3.20;2.75;;;-1.80;72.80;;;;;;5029591;28;20201;-67
2023/04/04 04:45:13;;;;;;;5.32;3.67;;;-1.90;73.20;;;;;;5029522;28;20194;-66
2023/04/04 04:47:39;;;;;;;5.30;3.05;;;-1.90;73.40;;;;;;5029960;28;20215;-68
2023/04/04 04:50:08;;;;;;;4.25;3.10;;;-2.00;73.20;;;;;;5029983;28;20232;-68
2023/04/04 04:52:37;;;;;;;6.03;3.75;;;-1.90;73.20;;;;;;5029386;28;20242;-65
2023/04/04 04:55:04;;;;;;;6.07;3.40;;;-1.90;73.30;;;;;;5029611;28;20313;-67
2023/04/04 04:57:32;;;;;;;3.95;3.60;;;-1.90;75.50;;;;;;5029569;28;20264;-73
2023/04/04 04:59:59;;;;;;;3.35;3.05;;;-2.00;76.90;;;;;;5029357;28;20345;-67
2023/04/04 05:02:26;;;;;;;7.38;4.10;;;-2.10;77.70;;;;;;5029359;28;20207;-68
2023/04/04 05:04:53;;;;;;;5.57;4.38;;;-2.20;77.80;;;;;;5029994;28;20198;-67
2023/04/04 05:07:22;;;;;;;4.80;4.30;;;-2.20;78.50;;;;;;5029411;28;20205;-67
2023/04/04 05:09:49;;;;;;;4.45;3.35;;;-2.30;80.00;;;;;;5029544;28;20218;-69
2023/04/04 05:12:16;;;;;;;8.90;4.00;;;-2.50;79.20;;;;;;5029062;28;20209;-67
2023/04/04 05:14:43;;;;;;;7.97;3.55;;;-2.60;79.20;;;;;;5029233;28;20221;-67
2023/04/04 05:17:10;;;;;;;10.85;5.47;;;-2.60;79.30;;;;;;5029131;28;20198;-69
2023/04/04 05:19:37;;;;;;;7.15;4.85;;;-2.60;79.40;;;;;;5023194;28;20798;-68
2023/04/04 05:22:03;;;;;;;5.80;4.60;;;-2.50;79.40;;;;;;5028063;28;20198;-67
2023/04/04 05:24:32;;;;;;;5.25;4.03;;;-2.40;80.10;;;;;;5027966;28;20218;-67
2023/04/04 05:26:59;;;;;;;7.38;4.50;;;-2.20;80.30;;;;;;5029149;28;20197;-66
2023/04/04 05:29:26;;;;;;;5.22;4.35;;;-2.10;79.10;;;;;;5029358;28;20568;-68
2023/04/04 05:31:53;;;;;;;13.15;4.95;;;-2.00;78.40;;;;;;5029506;28;20202;-69
2023/04/04 05:34:19;;;;;;;4.80;3.90;;;-2.00;77.20;;;;;;5027878;28;20205;-69
2023/04/04 05:36:46;;;;;;;6.43;4.50;;;-1.90;76.10;;;;;;5029497;28;20210;-68
2023/04/04 05:39:13;;;;;;;10.40;3.72;;;-1.80;75.30;;;;;;5029429;28;20229;-68
2023/04/04 05:41:41;;;;;;;6.72;4.30;;;-1.70;73.90;;;;;;5029013;28;20218;-69
2023/04/04 05:44:08;;;;;;;11.15;4.80;;;-1.60;73.40;;;;;;5029159;28;20206;-67
2023/04/04 05:46:35;;;;;;;5.20;4.30;;;-1.50;73.20;;;;;;5031495;28;20568;-67
2023/04/04 05:49:01;;;;;;;4.88;3.92;;;-1.50;72.90;;;;;;5033320;28;20314;-68
2023/04/04 05:51:28;;;;;;;5.03;4.38;;;-1.40;72.90;;;;;;5033594;28;20692;-66
2023/04/04 05:53:55;;;;;;;6.15;4.57;;;-1.40;73.00;;;;;;5033529;28;20221;-69
2023/04/04 05:56:23;;;;;;;7.45;4.28;;;-1.40;73.20;;;;;;5033693;28;20225;-67
2023/04/04 05:58:51;;;;;;;5.22;4.70;;;-1.40;73.30;;;;;;5032707;28;20715;-67
2023/04/04 06:01:19;;;;;;;7.50;4.68;;;-1.30;73.40;;;;;;5032559;28;20291;-63
2023/04/04 06:03:45;;;;;;;6.65;4.28;;;-1.30;73.80;;;;;;5032159;28;20240;-67
2023/04/04 06:06:12;;;;;;;7.65;4.75;;;-1.20;74.20;;;;;;5032183;28;20603;-67
2023/04/04 06:08:39;;;;;;;8.38;4.68;;;-1.20;73.50;;;;;;5031971;28;20221;-68
2023/04/04 06:11:06;;;;;;;7.68;4.90;;;-1.20;73.00;;;;;;5032552;28;20210;-67
2023/04/04 06:13:33;;;;;;;6.00;5.20;;;-1.10;71.80;;;;;;5031922;28;20198;-67
2023/04/04 06:16:01;;;;;;;4.45;3.90;;;-1.00;71.70;;;;;;5032251;28;20596;-67
2023/04/04 06:18:28;;;;;;;5.80;4.50;;;-0.80;71.50;;;;;;5031955;28;20202;-68
2023/04/04 06:20:55;;;;;;;5.13;3.95;;;-0.70;70.60;;;;;;5032045;28;20206;-68
2023/04/04 06:23:21;;;;;;;5.50;4.20;;;-0.50;69.40;;;;;;5031550;28;20567;-69
2023/04/04 06:25:48;;;;;;;6.65;4.25;;;-0.40;68.70;;;;;;5032438;28;20230;-68
2023/04/04 06:28:16;;;;;;;5.93;4.47;;;-0.30;68.00;;;;;;5032111;28;20568;-67
2023/04/04 06:30:44;;;;;;;4.68;4.25;;;-0.20;67.10;;;;;;5031983;28;20210;-67
2023/04/04 06:33:12;;;;;;;7.47;4.50;;;-0.10;66.60;;;;;;5031600;28;20581;-66
2023/04/04 06:35:38;;;;;;;8.30;4.55;;;-0.10;66.00;;;;;;5031655;28;20228;-67
2023/04/04 06:38:05;;;;;;;6.72;5.07;;;0.00;67.70;;;;;;5031810;28;20205;-67
2023/04/04 06:40:32;;;;;;;5.05;4.55;;;0.20;65.20;;;;;;5031856;28;20233;-67
2023/04/04 06:42:59;;;;;;;5.47;4.18;;;0.30;64.60;;;;;;5031705;28;20201;-68
2023/04/04 06:45:26;;;;;;;5.70;3.90;;;0.30;63.20;;;;;;5031722;28;20198;-66
2023/04/04 06:47:53;;;;;;;8.23;5.38;;;0.40;64.00;;;;;;5031735;28;20204;-67
2023/04/04 06:50:22;;;;;;;4.07;3.78;;;0.50;63.00;;;;;;5031190;28;20308;-66
2023/04/04 06:52:49;;;;;;;5.20;4.15;;;0.70;63.90;;;;;;5026095;28;20202;-68
2023/04/04 06:55:16;;;;;;;4.18;3.83;;;0.90;62.60;;;;;;5029381;28;20234;-66
2023/04/04 06:57:43;;;;;;;7.70;4.32;;;1.00;59.40;;;;;;5028879;28;20225;-68
2023/04/04 07:00:11;;;;;;;4.10;3.80;;;1.20;59.70;;;;;;5030140;28;20222;-67
2023/04/04 07:02:38;;;;;;;5.65;3.90;;;1.20;59.90;;;;;;5029795;28;20577;-68
2023/04/04 07:05:05;;;;;;;4.88;4.40;;;1.40;57.80;;;;;;5029719;28;20688;-67
2023/04/04 07:07:33;;;;;;;5.55;3.63;;;1.40;57.10;;;;;;5030350;28;20202;-67
2023/04/04 07:10:00;;;;;;;3.85;3.50;;;1.50;57.20;;;;;;5030148;28;20218;-68
2023/04/04 07:12:27;;;;;;;4.10;3.67;;;1.50;57.80;;;;;;5029421;28;20212;-67
2023/04/04 07:14:53;;;;;;;7.40;3.70;;;1.50;57.10;;;;;;5029842;28;20212;-68
2023/04/04 07:17:20;;;;;;;4.43;3.58;;;1.60;57.90;;;;;;5028980;28;20201;-67
2023/04/04 07:19:47;;;;;;;5.47;3.63;;;1.70;56.10;;;;;;5029527;28;20269;-66
2023/04/04 07:22:14;;;;;;;3.63;3.33;;;1.80;57.20;;;;;;5029400;28;20218;-66
2023/04/04 07:24:42;;;;;;;5.25;3.30;;;1.90;55.90;;;;;;5029345;28;20241;-67
2023/04/04 07:27:10;;;;;;;4.38;3.10;;;2.10;56.40;;;;;;5029439;28;20202;-66
2023/04/04 07:29:36;;;;;;;3.15;2.85;;;2.20;55.20;;;;;;5029574;28;20225;-68
2023/04/04 07:32:03;;;;;;;6.25;3.25;;;2.30;54.40;;;;;;5029085;28;20210;-68
2023/04/04 07:34:30;;;;;;;4.20;3.80;;;2.50;53.40;;;;;;5029669;28;20215;-67
2023/04/04 07:36:57;;;;;;;6.38;2.90;;;2.60;52.50;;;;;;5030379;28;20223;-67
2023/04/04 07:39:23;;;;;;;8.35;3.33;;;2.70;52.30;;;;;;5030660;28;20307;-67
2023/04/04 07:41:52;;;;;;;5.80;3.10;;;2.80;51.40;;;;;;5030693;28;20212;-67
2023/04/04 07:44:19;;;;;;;4.88;2.72;;;2.90;52.60;;;;;;5029419;28;20209;-66
2023/04/04 07:46:46;;;;;;;4.05;2.75;;;3.00;51.30;;;;;;5030610;28;20200;-66
2023/04/04 07:49:12;;;;;;;4.65;2.90;;;3.00;50.90;;;;;;5030484;28;20223;-68
2023/04/04 07:51:39;;;;;;;3.08;2.50;;;3.10;50.00;;;;;;5030833;28;20230;-65
2023/04/04 07:54:07;;;;;;;3.70;3.30;;;3.20;50.50;;;;;;5030259;28;20804;-66
2023/04/04 07:56:34;;;;;;;4.78;3.45;;;3.30;50.60;;;;;;5030261;28;20574;-66
2023/04/04 07:59:02;;;;;;;4.45;2.90;;;3.30;51.90;;;;;;5029997;28;20233;-66
2023/04/04 08:01:29;;;;;;;3.15;2.40;;;3.50;50.80;;;;;;5031008;28;20295;-66
2023/04/04 08:03:56;;;;;;;3.80;2.67;;;3.60;49.50;;;;;;5029858;28;20209;-67
2023/04/04 08:06:24;;;;;;;4.57;2.50;;;3.70;49.50;;;;;;5030398;28;20446;-66
2023/04/04 08:08:51;;;;;;;3.80;2.80;;;3.90;49.60;;;;;;5030036;28;20472;-68
2023/04/04 08:11:18;;;;;;;5.63;2.65;;;3.90;48.50;;;;;;5030179;28;20460;-67
2023/04/04 08:13:45;;;;;;;4.47;2.60;;;4.00;48.20;;;;;;5029642;28;20238;-66
2023/04/04 08:16:13;;;;;;;2.43;2.23;;;4.10;49.90;;;;;;5030118;28;20484;-63
2023/04/04 08:18:39;;;;;;;3.20;2.80;;;4.20;48.50;;;;;;5030078;28;20492;-67
2023/04/04 08:21:06;;;;;;;3.30;3.00;;;4.30;48.70;;;;;;5029959;28;20456;-66
2023/04/04 08:23:33;;;;;;;3.60;2.37;;;4.50;48.30;;;;;;5029605;28;20464;-66
2023/04/04 08:26:00;;;;;;;3.63;2.67;;;4.50;47.70;;;;;;5029899;28;20464;-67
2023/04/04 08:28:27;;;;;;;3.40;3.07;;;4.70;48.10;;;;;;5029837;28;20452;-67
2023/04/04 08:30:54;;;;;;;4.90;2.63;;;4.80;48.20;;;;;;5029241;28;20462;-67
2023/04/04 08:33:23;;;;;;;3.13;2.80;;;4.90;47.30;;;;;;5028052;28;20441;-67
2023/04/04 08:35:50;;;;;;;4.47;2.77;;;5.10;46.80;;;;;;5028651;28;20489;-68
2023/04/04 08:38:17;;;;;;;3.87;2.97;;;5.10;47.20;;;;;;5025951;28;20456;-63
2023/04/04 08:40:46;;;;;;;2.63;2.43;;;5.30;45.60;;;;;;5038696;28;21164;-67
2023/04/04 08:43:15;;;;;;;4.60;2.67;;;5.60;45.60;;;;;;5040153;28;20509;-67
2023/04/04 08:45:43;;;;;;;3.20;2.70;;;5.90;46.80;;;;;;5040414;28;20448;-67
2023/04/04 08:48:11;;;;;;;4.70;3.30;;;6.00;45.10;;;;;;5037217;28;20454;-68
2023/04/04 08:50:41;;;;;;;5.67;2.77;;;6.10;44.10;;;;;;5042121;28;20495;-68
2023/04/04 08:53:10;;;;;;;3.33;2.63;;;6.20;43.10;;;;;;5041555;28;20436;-67
2023/04/04 08:55:37;;;;;;;3.53;2.50;;;6.10;43.50;;;;;;5042032;28;20971;-68
2023/04/04 08:58:04;;;;;;;2.93;2.57;;;6.10;43.70;;;;;;5043318;28;21185;-67
2023/04/04 09:00:31;;;;;;;2.80;2.50;;;6.00;44.00;;;;;;5039245;28;20463;-67
2023/04/04 09:03:06;;;;;;;3.43;2.33;;;6.30;43.30;;;;;;5035827;28;20449;-67
2023/04/04 09:05:33;;;;;;;3.50;2.53;;;6.80;42.80;;;;;;5040485;28;20447;-65
2023/04/04 09:08:04;;;;;;;3.93;2.60;;;7.30;43.00;;;;;;5042062;28;20986;-67
2023/04/04 09:10:31;;;;;;;5.73;2.70;;;7.70;39.50;;;;;;5043862;28;20487;-68
2023/04/04 09:12:59;;;;;;;3.30;2.60;;;7.30;41.10;;;;;;5041921;28;20454;-66
2023/04/04 09:15:26;;;;;;;3.17;2.00;;;7.40;41.00;;;;;;5036603;28;20438;-67
2023/04/04 09:17:53;;;;;;;5.27;2.63;;;7.60;40.40;;;;;;5040175;28;20486;-67
2023/04/04 09:20:36;;;;;;;5.53;2.60;;;8.20;38.50;;;;;;5040808;28;20464;-66
2023/04/04 09:23:07;;;;;;;3.70;2.90;;;9.00;36.60;;;;;;5044373;28;20441;-64
2023/04/04 09:25:35;;;;;;;3.27;2.07;;;9.50;37.60;;;;;;5043911;28;20444;-67
2023/04/04 09:28:04;;;;;;;2.80;2.60;;;9.20;35.30;;;;;;5043300;28;20455;-68
2023/04/04 09:30:32;;;;;;;3.10;2.70;;;8.40;36.30;;;;;;5046878;28;20487;-67
2023/04/04 09:33:02;;;;;;;2.83;2.50;;;8.00;37.30;;;;;;5045498;28;20441;-64
2023/04/04 09:35:29;;;;;;;3.20;2.30;;;8.40;39.40;;;;;;5046835;28;20445;-67
2023/04/04 09:37:56;;;;;;;3.27;2.80;;;8.30;35.30;;;;;;5047599;28;20472;-66
2023/04/04 09:40:25;;;;;;;3.70;2.37;;;8.30;39.20;;;;;;5045018;28;20468;-69
2023/04/04 09:42:55;;;;;;;4.57;3.20;;;8.50;39.60;;;;;;5040779;28;20451;-66
2023/04/04 09:45:25;;;;;;;3.30;2.77;;;8.70;36.60;;;;;;5046597;28;20450;-69
2023/04/04 09:47:52;;;;;;;3.70;2.90;;;9.00;35.50;;;;;;5047027;28;20526;-68
2023/04/04 09:50:22;;;;;;;3.67;3.17;;;8.70;36.90;;;;;;5045247;28;20558;-67
2023/04/04 09:52:49;;;;;;;2.63;2.43;;;8.40;37.60;;;;;;5043672;28;20448;-66
2023/04/04 09:55:17;;;;;;;5.60;2.80;;;8.00;37.30;;;;;;5042178;28;20461;-66
2023/04/04 09:57:47;;;;;;;3.60;3.20;;;7.30;36.90;;;;;;5046584;28;20498;-65
2023/04/04 10:00:20;;;;;;;3.37;2.70;;;7.30;40.90;;;;;;5043304;28;20898;-65
2023/04/04 10:02:48;;;;;;;3.30;2.63;;;8.10;40.40;;;;;;5041257;28;20450;-66
2023/04/04 10:05:16;;;;;;;3.07;2.77;;;9.00;38.00;;;;;;5045453;28;20476;-67
2023/04/04 10:07:46;;;;;;;4.50;2.63;;;9.50;37.20;;;;;;5041592;28;20444;-65
2023/04/04 10:10:15;;;;;;;4.20;3.10;;;9.90;36.10;;;;;;5044303;28;20901;-66
2023/04/04 10:12:47;;;;;;;2.70;2.30;;;10.40;34.40;;;;;;5040701;28;20443;-66
2023/04/04 10:15:16;;;;;;;3.17;2.87;;;10.60;35.20;;;;;;5042439;28;20444;-68
2023/04/04 10:17:47;;;;;;;3.30;2.80;;;11.00;33.20;;;;;;5044875;28;20488;-67
2023/04/04 10:20:14;;;;;;;3.23;2.43;;;11.10;33.00;;;;;;5041033;28;20463;-66
2023/04/04 10:22:42;;;;;;;2.43;2.20;;;11.40;31.30;;;;;;5043201;28;21039;-67
2023/04/04 10:25:10;;;;;;;4.03;2.70;;;11.50;32.50;;;;;;5042389;28;20453;-67
2023/04/04 10:27:37;;;;;;;3.57;2.57;;;11.60;32.00;;;;;;5043757;28;20449;-67
2023/04/04 10:30:07;;;;;;;3.40;3.10;;;11.80;32.90;;;;;;5041831;28;20468;-65
2023/04/04 10:32:43;;;;;;;6.23;3.23;;;10.50;33.40;;;;;;5033129;28;20460;-66
2023/04/04 10:35:12;;;;;;;3.20;2.60;;;10.20;33.60;;;;;;5034184;28;20448;-69
2023/04/04 10:37:44;;;;;;;3.00;2.30;;;10.60;36.20;;;;;;5033267;28;20483;-68
2023/04/04 10:40:15;;;;;;;4.10;2.80;;;11.30;34.80;;;;;;5034121;28;20480;-64
2023/04/04 10:42:46;;;;;;;5.10;3.77;;;11.90;33.30;;;;;;5037074;28;20444;-63
2023/04/04 10:45:15;;;;;;;4.00;2.77;;;12.40;33.80;;;;;;5035768;28;20954;-66
2023/04/04 10:47:43;;;;;;;4.13;2.50;;;12.70;32.20;;;;;;5040502;28;20462;-64
2023/04/04 10:50:11;;;;;;;3.87;2.90;;;12.90;31.40;;;;;;5038074;28;20464;-64
2023/04/04 10:52:40;;;;;;;2.87;2.50;;;13.30;30.50;;;;;;5045792;28;20446;-68
2023/04/04 10:55:09;;;;;;;3.90;2.80;;;13.20;29.40;;;;;;5036885;28;20470;-68
2023/04/04 10:57:39;;;;;;;3.13;2.60;;;12.50;31.60;;;;;;5043086;28;21189;-69
2023/04/04 11:00:09;;;;;;;6.13;3.30;;;10.90;29.50;;;;;;5053018;28;20458;-67
2023/04/04 11:02:50;;;;;;;3.20;2.93;;;10.00;32.60;;;;;;5049237;28;20543;-69
2023/04/04 11:05:21;;;;;;;5.80;2.60;;;10.50;35.70;;;;;;5040024;28;20451;-67
2023/04/04 11:07:53;;;;;;;3.77;2.70;;;11.30;32.40;;;;;;5040920;28;20435;-67
2023/04/04 11:10:24;;;;;;;3.50;2.73;;;12.00;31.70;;;;;;5043130;28;21058;-67
2023/04/04 11:12:55;;;;;;;4.67;2.50;;;12.30;30.40;;;;;;5044391;28;20469;-66
2023/04/04 11:15:23;;;;;;;3.43;2.60;;;12.60;29.00;;;;;;5045674;28;20497;-65
2023/04/04 11:17:57;;;;;;;4.13;2.93;;;12.80;28.10;;;;;;5032387;28;20483;-66
2023/04/04 11:20:28;;;;;;;3.50;3.03;;;12.90;27.70;;;;;;5037707;28;20463;-66
2023/04/04 11:23:06;;;;;;;4.60;2.53;;;13.60;27.30;;;;;;5033052;28;20451;-67
2023/04/04 11:25:35;;;;;;;3.13;2.60;;;13.40;27.80;;;;;;5041303;28;20478;-65
2023/04/04 11:28:26;;;;;;;3.00;2.80;;;12.20;27.30;;;;;;5039776;28;20464;-67
2023/04/04 11:31:26;;;;;;;3.80;2.90;;;9.90;30.80;;;;;;5040792;28;20451;-66
2023/04/04 11:33:59;;;;;;;4.23;2.80;;;9.20;33.30;;;;;;5039996;28;20441;-65
2023/04/04 11:36:49;;;;;;;3.13;2.80;;;10.10;31.20;;;;;;5042040;28;20440;-66
2023/04/04 11:39:22;;;;;;;3.63;3.30;;;10.60;32.00;;;;;;5044592;28;20564;-65
2023/04/04 11:41:52;;;;;;;4.27;2.67;;;10.30;30.80;;;;;;5042734;28;21141;-67
2023/04/04 11:44:21;;;;;;;3.23;2.93;;;9.20;33.10;;;;;;5044606;28;20455;-65
2023/04/04 11:46:50;;;;;;;4.23;3.63;;;9.30;34.60;;;;;;5040890;28;20883;-68
2023/04/04 11:49:18;;;;;;;4.33;3.17;;;10.80;34.70;;;;;;5044242;28;20469;-65
2023/04/04 11:51:45;;;;;;;3.03;2.53;;;12.30;33.10;;;;;;5044701;28;20446;-62
2023/04/04 11:54:16;;;;;;;5.90;3.17;;;13.70;28.90;;;;;;5042792;28;20455;-66
2023/04/04 11:56:44;;;;;;;3.83;2.73;;;12.90;27.90;;;;;;5034813;28;20483;-65
2023/04/04 11:59:11;;;;;;;4.97;3.00;;;11.10;30.90;;;;;;5037706;28;20494;-66
2023/04/04 12:01:39;;;;;;;3.17;2.87;;;11.50;33.50;;;;;;5041568;28;20454;-67
2023/04/04 12:04:06;;;;;;;4.90;2.73;;;11.10;32.20;;;;;;5041242;28;20446;-65
2023/04/04 12:06:36;;;;;;;2.80;2.50;;;11.70;30.30;;;;;;5041298;28;20447;-65
2023/04/04 12:09:03;;;;;;;3.40;2.90;;;13.30;30.90;;;;;;5044032;28;20499;-65
2023/04/04 12:11:30;;;;;;;5.07;3.87;;;14.70;29.60;;;;;;5040863;28;20438;-66
2023/04/04 12:13:57;;;;;;;3.97;2.80;;;15.30;27.80;;;;;;5042132;28;20546;-65
2023/04/04 12:16:24;;;;;;;5.83;3.20;;;16.10;27.00;;;;;;5042723;28;20448;-66
2023/04/04 12:18:51;;;;;;;3.10;2.80;;;16.00;27.80;;;;;;5042187;28;20484;-65
2023/04/04 12:21:18;;;;;;;3.53;2.70;;;14.30;26.60;;;;;;5041292;28;20455;-66
2023/04/04 12:23:47;;;;;;;4.30;3.13;;;12.50;27.60;;;;;;5040372;28;20436;-67
2023/04/04 12:26:14;;;;;;;2.57;2.37;;;12.40;27.60;;;;;;5042612;28;21024;-66
2023/04/04 12:28:44;;;;;;;3.20;2.90;;;13.00;28.30;;;;;;5041875;28;20689;-68
2023/04/04 12:31:12;;;;;;;4.17;3.20;;;12.10;28.30;;;;;;5041726;28;20537;-66
2023/04/04 12:33:40;;;;;;;3.20;2.60;;;12.20;29.60;;;;;;5041972;28;20474;-65
2023/04/04 12:36:08;;;;;;;3.43;3.10;;;12.40;29.80;;;;;;5039286;28;20450;-69
2023/04/04 12:38:39;;;;;;;3.77;2.87;;;12.80;28.60;;;;;;5040232;28;20488;-66
2023/04/04 12:41:18;;;;;;;2.60;2.40;;;13.30;28.60;;;;;;5042308;28;20484;-67
2023/04/04 12:43:47;;;;;;;3.50;2.60;;;13.70;29.50;;;;;;5038447;28;20452;-67
2023/04/04 12:46:13;;;;;;;3.87;2.50;;;14.50;29.70;;;;;;5039760;28;20454;-66
2023/04/04 12:48:41;;;;;;;3.87;3.30;;;14.30;29.10;;;;;;5041771;28;20570;-68
2023/04/04 12:51:10;;;;;;;3.67;2.90;;;11.80;28.30;;;;;;5042437;28;20448;-66
2023/04/04 12:53:50;;;;;;;3.83;2.73;;;12.30;31.70;;;;;;5040599;28;20459;-67
2023/04/04 12:56:19;;;;;;;2.70;2.40;;;14.30;31.40;;;;;;5044272;28;20438;-67